sensor_id;sensor_type;location;lat;lon;timestamp;P1;durP1;ratioP1;P2;durP2;ratioP2
5831;SDS011;50943;51.448;7.646;2023-12-22T00:00:54;6.00;;;2.53;;
5831;SDS011;50943;51.448;7.646;2023-12-22T00:03:21;20.97;;;3.70;;
5831;SDS011;50943;51.448;7.646;2023-12-22T00:05:48;11.17;;;2.10;;
5831;SDS011;50943;51.448;7.646;2023-12-22T00:08:15;12.83;;;1.77;;
5831;SDS011;50943;51.448;7.646;2023-12-22T00:10:42;11.60;;;2.20;;
5831;SDS011;50943;51.448;7.646;2023-12-22T00:13:08;9.20;;;1.73;;
5831;SDS011;50943;51.448;7.646;2023-12-22T00:15:35;9.13;;;1.90;;
5831;SDS011;50943;51.448;7.646;2023-12-22T00:18:01;14.30;;;1.77;;
5831;SDS011;50943;51.448;7.646;2023-12-22T00:20:28;5.73;;;1.30;;
5831;SDS011;50943;51.448;7.646;2023-12-22T00:22:54;10.40;;;1.90;;
5831;SDS011;50943;51.448;7.646;2023-12-22T00:25:22;7.07;;;2.13;;
5831;SDS011;50943;51.448;7.646;2023-12-22T00:27:49;9.13;;;1.67;;
5831;SDS011;50943;51.448;7.646;2023-12-22T00:30:15;12.90;;;2.13;;
5831;SDS011;50943;51.448;7.646;2023-12-22T00:32:42;11.20;;;2.30;;
5831;SDS011;50943;51.448;7.646;2023-12-22T00:35:08;8.77;;;1.70;;
5831;SDS011;50943;51.448;7.646;2023-12-22T00:37:35;13.20;;;2.37;;
5831;SDS011;50943;51.448;7.646;2023-12-22T00:40:02;15.47;;;2.10;;
5831;SDS011;50943;51.448;7.646;2023-12-22T00:42:31;14.43;;;2.00;;
5831;SDS011;50943;51.448;7.646;2023-12-22T00:44:57;11.50;;;2.03;;
5831;SDS011;50943;51.448;7.646;2023-12-22T00:47:24;11.63;;;1.80;;
5831;SDS011;50943;51.448;7.646;2023-12-22T00:49:50;15.00;;;1.83;;
5831;SDS011;50943;51.448;7.646;2023-12-22T00:52:17;9.10;;;1.83;;
5831;SDS011;50943;51.448;7.646;2023-12-22T00:54:43;16.30;;;2.03;;
5831;SDS011;50943;51.448;7.646;2023-12-22T00:57:10;15.87;;;1.83;;
5831;SDS011;50943;51.448;7.646;2023-12-22T00:59:38;17.03;;;2.50;;
5831;SDS011;50943;51.448;7.646;2023-12-22T01:02:07;11.23;;;2.10;;
5831;SDS011;50943;51.448;7.646;2023-12-22T01:04:33;16.47;;;2.00;;
5831;SDS011;50943;51.448;7.646;2023-12-22T01:07:00;11.40;;;1.90;;
5831;SDS011;50943;51.448;7.646;2023-12-22T01:09:26;16.10;;;2.00;;
5831;SDS011;50943;51.448;7.646;2023-12-22T01:11:52;8.77;;;2.40;;
5831;SDS011;50943;51.448;7.646;2023-12-22T01:14:18;12.93;;;2.07;;
5831;SDS011;50943;51.448;7.646;2023-12-22T01:16:46;18.87;;;2.93;;
5831;SDS011;50943;51.448;7.646;2023-12-22T01:19:13;7.97;;;2.37;;
5831;SDS011;50943;51.448;7.646;2023-12-22T01:21:39;10.83;;;2.30;;
5831;SDS011;50943;51.448;7.646;2023-12-22T01:24:05;18.43;;;2.57;;
5831;SDS011;50943;51.448;7.646;2023-12-22T01:26:32;9.90;;;1.60;;
5831;SDS011;50943;51.448;7.646;2023-12-22T01:28:58;12.60;;;1.77;;
5831;SDS011;50943;51.448;7.646;2023-12-22T01:31:25;11.87;;;1.80;;
5831;SDS011;50943;51.448;7.646;2023-12-22T01:33:53;7.30;;;2.00;;
5831;SDS011;50943;51.448;7.646;2023-12-22T01:36:20;14.50;;;1.70;;
5831;SDS011;50943;51.448;7.646;2023-12-22T01:38:46;8.80;;;1.47;;
5831;SDS011;50943;51.448;7.646;2023-12-22T01:41:13;12.10;;;1.90;;
5831;SDS011;50943;51.448;7.646;2023-12-22T01:43:39;19.23;;;1.80;;
5831;SDS011;50943;51.448;7.646;2023-12-22T01:46:06;12.57;;;2.40;;
5831;SDS011;50943;51.448;7.646;2023-12-22T01:48:33;17.47;;;2.23;;
5831;SDS011;50943;51.448;7.646;2023-12-22T01:51:02;12.87;;;2.23;;
5831;SDS011;50943;51.448;7.646;2023-12-22T01:53:30;18.37;;;2.60;;
5831;SDS011;50943;51.448;7.646;2023-12-22T01:55:57;14.83;;;2.00;;
5831;SDS011;50943;51.448;7.646;2023-12-22T01:58:25;12.33;;;2.47;;
5831;SDS011;50943;51.448;7.646;2023-12-22T02:00:52;8.37;;;2.80;;
5831;SDS011;50943;51.448;7.646;2023-12-22T02:03:19;14.23;;;2.13;;
5831;SDS011;50943;51.448;7.646;2023-12-22T02:05:46;10.93;;;2.10;;
5831;SDS011;50943;51.448;7.646;2023-12-22T02:08:14;19.97;;;2.70;;
5831;SDS011;50943;51.448;7.646;2023-12-22T02:10:41;11.90;;;2.40;;
5831;SDS011;50943;51.448;7.646;2023-12-22T02:13:07;16.40;;;2.30;;
5831;SDS011;50943;51.448;7.646;2023-12-22T02:15:34;8.90;;;1.53;;
5831;SDS011;50943;51.448;7.646;2023-12-22T02:18:02;10.40;;;1.90;;
5831;SDS011;50943;51.448;7.646;2023-12-22T02:20:30;10.00;;;1.70;;
5831;SDS011;50943;51.448;7.646;2023-12-22T02:22:59;7.20;;;1.50;;
5831;SDS011;50943;51.448;7.646;2023-12-22T02:25:25;12.33;;;2.20;;
5831;SDS011;50943;51.448;7.646;2023-12-22T02:27:53;10.30;;;1.57;;
5831;SDS011;50943;51.448;7.646;2023-12-22T02:30:23;8.07;;;1.70;;
5831;SDS011;50943;51.448;7.646;2023-12-22T02:32:51;9.37;;;1.20;;
5831;SDS011;50943;51.448;7.646;2023-12-22T02:35:21;9.30;;;1.40;;
5831;SDS011;50943;51.448;7.646;2023-12-22T02:37:50;8.53;;;1.77;;
5831;SDS011;50943;51.448;7.646;2023-12-22T02:40:18;8.80;;;1.70;;
5831;SDS011;50943;51.448;7.646;2023-12-22T02:42:45;8.33;;;1.00;;
5831;SDS011;50943;51.448;7.646;2023-12-22T02:45:13;7.23;;;1.13;;
5831;SDS011;50943;51.448;7.646;2023-12-22T02:47:40;5.57;;;0.93;;
5831;SDS011;50943;51.448;7.646;2023-12-22T02:50:07;15.03;;;1.63;;
5831;SDS011;50943;51.448;7.646;2023-12-22T02:52:34;6.27;;;0.90;;
5831;SDS011;50943;51.448;7.646;2023-12-22T02:55:01;7.00;;;1.67;;
5831;SDS011;50943;51.448;7.646;2023-12-22T02:57:29;7.53;;;1.13;;
5831;SDS011;50943;51.448;7.646;2023-12-22T02:59:56;7.33;;;2.17;;
5831;SDS011;50943;51.448;7.646;2023-12-22T03:02:22;11.67;;;1.50;;
5831;SDS011;50943;51.448;7.646;2023-12-22T03:04:49;6.80;;;1.30;;
5831;SDS011;50943;51.448;7.646;2023-12-22T03:07:15;9.00;;;1.60;;
5831;SDS011;50943;51.448;7.646;2023-12-22T03:09:42;6.70;;;1.20;;
5831;SDS011;50943;51.448;7.646;2023-12-22T03:12:09;8.63;;;1.50;;
5831;SDS011;50943;51.448;7.646;2023-12-22T03:14:38;6.30;;;1.13;;
5831;SDS011;50943;51.448;7.646;2023-12-22T03:17:05;5.23;;;0.90;;
5831;SDS011;50943;51.448;7.646;2023-12-22T03:19:32;8.50;;;1.57;;
5831;SDS011;50943;51.448;7.646;2023-12-22T03:21:59;6.97;;;1.37;;
5831;SDS011;50943;51.448;7.646;2023-12-22T03:24:26;6.43;;;1.27;;
5831;SDS011;50943;51.448;7.646;2023-12-22T03:26:53;11.20;;;1.50;;
5831;SDS011;50943;51.448;7.646;2023-12-22T03:29:20;12.17;;;1.20;;
5831;SDS011;50943;51.448;7.646;2023-12-22T03:31:48;3.23;;;1.30;;
5831;SDS011;50943;51.448;7.646;2023-12-22T03:34:14;7.87;;;1.30;;
5831;SDS011;50943;51.448;7.646;2023-12-22T03:36:41;5.20;;;1.40;;
5831;SDS011;50943;51.448;7.646;2023-12-22T03:39:07;8.17;;;2.17;;
5831;SDS011;50943;51.448;7.646;2023-12-22T03:41:34;8.63;;;1.40;;
5831;SDS011;50943;51.448;7.646;2023-12-22T03:44:00;10.87;;;1.27;;
5831;SDS011;50943;51.448;7.646;2023-12-22T03:46:27;7.33;;;1.50;;
5831;SDS011;50943;51.448;7.646;2023-12-22T03:48:55;4.30;;;1.00;;
5831;SDS011;50943;51.448;7.646;2023-12-22T03:51:21;5.33;;;1.10;;
5831;SDS011;50943;51.448;7.646;2023-12-22T03:53:48;7.00;;;1.03;;
5831;SDS011;50943;51.448;7.646;2023-12-22T03:56:15;10.77;;;1.30;;
5831;SDS011;50943;51.448;7.646;2023-12-22T03:58:41;9.00;;;1.13;;
5831;SDS011;50943;51.448;7.646;2023-12-22T04:01:08;3.67;;;1.10;;
5831;SDS011;50943;51.448;7.646;2023-12-22T04:03:34;7.20;;;1.07;;
5831;SDS011;50943;51.448;7.646;2023-12-22T04:06:03;8.63;;;1.20;;
5831;SDS011;50943;51.448;7.646;2023-12-22T04:08:29;3.77;;;1.17;;
5831;SDS011;50943;51.448;7.646;2023-12-22T04:10:56;4.10;;;1.17;;
5831;SDS011;50943;51.448;7.646;2023-12-22T04:13:22;7.43;;;1.63;;
5831;SDS011;50943;51.448;7.646;2023-12-22T04:15:49;3.40;;;1.00;;
5831;SDS011;50943;51.448;7.646;2023-12-22T04:18:15;13.13;;;2.30;;
5831;SDS011;50943;51.448;7.646;2023-12-22T04:20:42;7.00;;;1.30;;
5831;SDS011;50943;51.448;7.646;2023-12-22T04:23:09;12.30;;;1.63;;
5831;SDS011;50943;51.448;7.646;2023-12-22T04:25:36;6.40;;;1.40;;
5831;SDS011;50943;51.448;7.646;2023-12-22T04:28:02;8.40;;;1.77;;
5831;SDS011;50943;51.448;7.646;2023-12-22T04:30:29;17.53;;;2.00;;
5831;SDS011;50943;51.448;7.646;2023-12-22T04:32:56;4.60;;;1.10;;
5831;SDS011;50943;51.448;7.646;2023-12-22T04:35:22;3.97;;;1.00;;
5831;SDS011;50943;51.448;7.646;2023-12-22T04:37:49;4.13;;;1.03;;
5831;SDS011;50943;51.448;7.646;2023-12-22T04:40:17;4.23;;;1.07;;
5831;SDS011;50943;51.448;7.646;2023-12-22T04:42:44;2.50;;;0.93;;
5831;SDS011;50943;51.448;7.646;2023-12-22T04:45:10;2.27;;;1.00;;
5831;SDS011;50943;51.448;7.646;2023-12-22T04:47:37;4.50;;;1.30;;
5831;SDS011;50943;51.448;7.646;2023-12-22T04:50:03;4.57;;;0.90;;
5831;SDS011;50943;51.448;7.646;2023-12-22T04:52:30;6.47;;;1.07;;
5831;SDS011;50943;51.448;7.646;2023-12-22T04:54:57;1.83;;;0.87;;
5831;SDS011;50943;51.448;7.646;2023-12-22T04:57:24;6.20;;;0.80;;
5831;SDS011;50943;51.448;7.646;2023-12-22T04:59:51;4.63;;;0.80;;
5831;SDS011;50943;51.448;7.646;2023-12-22T05:02:17;4.40;;;1.20;;
5831;SDS011;50943;51.448;7.646;2023-12-22T05:04:44;6.40;;;1.10;;
5831;SDS011;50943;51.448;7.646;2023-12-22T05:07:10;6.37;;;1.63;;
5831;SDS011;50943;51.448;7.646;2023-12-22T05:09:37;7.27;;;1.90;;
5831;SDS011;50943;51.448;7.646;2023-12-22T05:12:04;4.53;;;1.20;;
5831;SDS011;50943;51.448;7.646;2023-12-22T05:14:32;5.63;;;1.07;;
5831;SDS011;50943;51.448;7.646;2023-12-22T05:16:58;7.10;;;1.20;;
5831;SDS011;50943;51.448;7.646;2023-12-22T05:19:25;10.90;;;1.60;;
5831;SDS011;50943;51.448;7.646;2023-12-22T05:21:52;5.57;;;1.27;;
5831;SDS011;50943;51.448;7.646;2023-12-22T05:24:21;5.27;;;1.03;;
5831;SDS011;50943;51.448;7.646;2023-12-22T05:26:47;6.83;;;1.03;;
5831;SDS011;50943;51.448;7.646;2023-12-22T05:29:13;6.87;;;1.20;;
5831;SDS011;50943;51.448;7.646;2023-12-22T05:31:41;5.67;;;1.07;;
5831;SDS011;50943;51.448;7.646;2023-12-22T05:34:08;6.13;;;1.20;;
5831;SDS011;50943;51.448;7.646;2023-12-22T05:36:35;4.77;;;1.00;;
5831;SDS011;50943;51.448;7.646;2023-12-22T05:39:02;3.60;;;1.37;;
5831;SDS011;50943;51.448;7.646;2023-12-22T05:41:28;10.53;;;1.43;;
5831;SDS011;50943;51.448;7.646;2023-12-22T05:43:55;2.77;;;1.10;;
5831;SDS011;50943;51.448;7.646;2023-12-22T05:46:21;16.17;;;1.50;;
5831;SDS011;50943;51.448;7.646;2023-12-22T05:48:49;10.23;;;1.27;;
5831;SDS011;50943;51.448;7.646;2023-12-22T05:51:15;9.67;;;1.33;;
5831;SDS011;50943;51.448;7.646;2023-12-22T05:53:42;15.13;;;1.37;;
5831;SDS011;50943;51.448;7.646;2023-12-22T05:56:18;6.70;;;1.20;;
5831;SDS011;50943;51.448;7.646;2023-12-22T05:58:45;10.40;;;1.97;;
5831;SDS011;50943;51.448;7.646;2023-12-22T06:01:14;7.30;;;1.70;;
5831;SDS011;50943;51.448;7.646;2023-12-22T06:03:41;8.90;;;1.60;;
5831;SDS011;50943;51.448;7.646;2023-12-22T06:06:08;9.80;;;1.40;;
5831;SDS011;50943;51.448;7.646;2023-12-22T06:08:35;10.67;;;1.37;;
5831;SDS011;50943;51.448;7.646;2023-12-22T06:11:01;6.50;;;1.50;;
5831;SDS011;50943;51.448;7.646;2023-12-22T06:13:28;12.50;;;1.60;;
5831;SDS011;50943;51.448;7.646;2023-12-22T06:15:54;5.50;;;1.30;;
5831;SDS011;50943;51.448;7.646;2023-12-22T06:18:21;7.80;;;1.77;;
5831;SDS011;50943;51.448;7.646;2023-12-22T06:20:47;11.10;;;1.93;;
5831;SDS011;50943;51.448;7.646;2023-12-22T06:23:15;10.10;;;1.70;;
5831;SDS011;50943;51.448;7.646;2023-12-22T06:25:42;8.93;;;1.50;;
5831;SDS011;50943;51.448;7.646;2023-12-22T06:28:08;6.60;;;1.50;;
5831;SDS011;50943;51.448;7.646;2023-12-22T06:30:35;9.00;;;1.60;;
5831;SDS011;50943;51.448;7.646;2023-12-22T06:33:01;8.33;;;2.10;;
5831;SDS011;50943;51.448;7.646;2023-12-22T06:35:28;8.53;;;2.10;;
5831;SDS011;50943;51.448;7.646;2023-12-22T06:37:56;10.80;;;2.10;;
5831;SDS011;50943;51.448;7.646;2023-12-22T06:40:27;12.87;;;2.60;;
5831;SDS011;50943;51.448;7.646;2023-12-22T06:42:54;9.30;;;1.60;;
5831;SDS011;50943;51.448;7.646;2023-12-22T06:45:20;6.00;;;1.30;;
5831;SDS011;50943;51.448;7.646;2023-12-22T06:47:47;7.00;;;1.47;;
5831;SDS011;50943;51.448;7.646;2023-12-22T06:50:13;5.60;;;1.30;;
5831;SDS011;50943;51.448;7.646;2023-12-22T06:52:40;10.70;;;1.90;;
5831;SDS011;50943;51.448;7.646;2023-12-22T06:55:06;13.93;;;2.20;;
5831;SDS011;50943;51.448;7.646;2023-12-22T06:57:35;10.27;;;1.53;;
5831;SDS011;50943;51.448;7.646;2023-12-22T07:00:01;13.40;;;1.87;;
5831;SDS011;50943;51.448;7.646;2023-12-22T07:02:28;13.90;;;2.43;;
5831;SDS011;50943;51.448;7.646;2023-12-22T07:08:02;17.10;;;2.07;;
5831;SDS011;50943;51.448;7.646;2023-12-22T07:10:30;13.90;;;2.30;;
5831;SDS011;50943;51.448;7.646;2023-12-22T07:12:58;15.73;;;2.07;;
5831;SDS011;50943;51.448;7.646;2023-12-22T07:15:24;18.43;;;2.80;;
5831;SDS011;50943;51.448;7.646;2023-12-22T07:17:50;18.30;;;2.30;;
5831;SDS011;50943;51.448;7.646;2023-12-22T07:20:17;11.90;;;1.87;;
5831;SDS011;50943;51.448;7.646;2023-12-22T07:22:44;7.73;;;1.57;;
5831;SDS011;50943;51.448;7.646;2023-12-22T07:25:11;14.60;;;1.93;;
5831;SDS011;50943;51.448;7.646;2023-12-22T07:27:37;10.13;;;1.80;;
5831;SDS011;50943;51.448;7.646;2023-12-22T07:30:06;8.07;;;1.70;;
5831;SDS011;50943;51.448;7.646;2023-12-22T07:32:33;9.43;;;1.90;;
5831;SDS011;50943;51.448;7.646;2023-12-22T07:34:59;13.03;;;2.10;;
5831;SDS011;50943;51.448;7.646;2023-12-22T07:37:26;14.43;;;1.87;;
5831;SDS011;50943;51.448;7.646;2023-12-22T07:39:53;12.80;;;1.70;;
5831;SDS011;50943;51.448;7.646;2023-12-22T07:42:20;16.33;;;2.43;;
5831;SDS011;50943;51.448;7.646;2023-12-22T07:44:46;12.90;;;2.50;;
5831;SDS011;50943;51.448;7.646;2023-12-22T07:47:14;12.93;;;1.83;;
5831;SDS011;50943;51.448;7.646;2023-12-22T07:49:41;8.60;;;2.70;;
5831;SDS011;50943;51.448;7.646;2023-12-22T07:52:07;10.03;;;2.30;;
5831;SDS011;50943;51.448;7.646;2023-12-22T07:54:33;12.67;;;2.10;;
5831;SDS011;50943;51.448;7.646;2023-12-22T07:57:00;13.53;;;2.30;;
5831;SDS011;50943;51.448;7.646;2023-12-22T07:59:26;7.60;;;3.40;;
5831;SDS011;50943;51.448;7.646;2023-12-22T08:01:53;16.87;;;2.10;;
5831;SDS011;50943;51.448;7.646;2023-12-22T08:04:21;16.03;;;2.20;;
5831;SDS011;50943;51.448;7.646;2023-12-22T08:06:47;13.33;;;2.97;;
5831;SDS011;50943;51.448;7.646;2023-12-22T08:09:14;15.47;;;2.37;;
5831;SDS011;50943;51.448;7.646;2023-12-22T08:11:40;8.43;;;2.03;;
5831;SDS011;50943;51.448;7.646;2023-12-22T08:14:06;9.73;;;2.07;;
5831;SDS011;50943;51.448;7.646;2023-12-22T08:16:33;14.23;;;2.57;;
5831;SDS011;50943;51.448;7.646;2023-12-22T08:18:59;15.23;;;3.23;;
5831;SDS011;50943;51.448;7.646;2023-12-22T08:21:27;15.73;;;2.47;;
5831;SDS011;50943;51.448;7.646;2023-12-22T08:23:54;13.40;;;3.10;;
5831;SDS011;50943;51.448;7.646;2023-12-22T08:26:20;12.53;;;2.60;;
5831;SDS011;50943;51.448;7.646;2023-12-22T08:28:47;16.37;;;3.03;;
5831;SDS011;50943;51.448;7.646;2023-12-22T08:31:13;14.07;;;2.97;;
5831;SDS011;50943;51.448;7.646;2023-12-22T08:33:40;16.27;;;2.70;;
5831;SDS011;50943;51.448;7.646;2023-12-22T08:36:08;18.37;;;3.10;;
5831;SDS011;50943;51.448;7.646;2023-12-22T08:38:38;15.23;;;2.50;;
5831;SDS011;50943;51.448;7.646;2023-12-22T08:41:05;13.60;;;3.03;;
5831;SDS011;50943;51.448;7.646;2023-12-22T08:43:32;23.23;;;3.47;;
5831;SDS011;50943;51.448;7.646;2023-12-22T08:45:59;16.97;;;3.67;;
5831;SDS011;50943;51.448;7.646;2023-12-22T08:48:26;19.20;;;3.30;;
5831;SDS011;50943;51.448;7.646;2023-12-22T08:50:52;28.70;;;4.00;;
5831;SDS011;50943;51.448;7.646;2023-12-22T08:53:18;13.07;;;4.23;;
5831;SDS011;50943;51.448;7.646;2023-12-22T08:55:46;21.67;;;4.77;;
5831;SDS011;50943;51.448;7.646;2023-12-22T08:58:13;21.57;;;5.17;;
5831;SDS011;50943;51.448;7.646;2023-12-22T09:00:39;23.27;;;5.33;;
5831;SDS011;50943;51.448;7.646;2023-12-22T09:03:06;23.00;;;4.27;;
5831;SDS011;50943;51.448;7.646;2023-12-22T09:05:33;25.27;;;4.80;;
5831;SDS011;50943;51.448;7.646;2023-12-22T09:07:59;17.20;;;3.50;;
5831;SDS011;50943;51.448;7.646;2023-12-22T09:10:25;35.10;;;4.73;;
5831;SDS011;50943;51.448;7.646;2023-12-22T09:12:53;29.07;;;4.67;;
5831;SDS011;50943;51.448;7.646;2023-12-22T09:15:20;21.77;;;4.20;;
5831;SDS011;50943;51.448;7.646;2023-12-22T09:17:46;22.23;;;4.43;;
5831;SDS011;50943;51.448;7.646;2023-12-22T09:20:13;25.27;;;5.10;;
5831;SDS011;50943;51.448;7.646;2023-12-22T09:22:39;26.80;;;5.33;;
5831;SDS011;50943;51.448;7.646;2023-12-22T09:25:06;33.70;;;6.17;;
5831;SDS011;50943;51.448;7.646;2023-12-22T09:27:33;37.97;;;5.57;;
5831;SDS011;50943;51.448;7.646;2023-12-22T09:30:01;21.97;;;4.87;;
5831;SDS011;50943;51.448;7.646;2023-12-22T09:32:29;35.37;;;6.53;;
5831;SDS011;50943;51.448;7.646;2023-12-22T09:34:56;26.60;;;5.43;;
5831;SDS011;50943;51.448;7.646;2023-12-22T09:37:24;31.33;;;5.03;;
5831;SDS011;50943;51.448;7.646;2023-12-22T09:39:50;34.23;;;5.37;;
5831;SDS011;50943;51.448;7.646;2023-12-22T09:42:17;27.23;;;5.03;;
5831;SDS011;50943;51.448;7.646;2023-12-22T09:44:43;24.30;;;4.37;;
5831;SDS011;50943;51.448;7.646;2023-12-22T09:47:11;34.33;;;6.43;;
5831;SDS011;50943;51.448;7.646;2023-12-22T09:49:38;27.30;;;5.43;;
5831;SDS011;50943;51.448;7.646;2023-12-22T09:52:05;30.37;;;6.10;;
5831;SDS011;50943;51.448;7.646;2023-12-22T09:54:32;20.53;;;5.03;;
5831;SDS011;50943;51.448;7.646;2023-12-22T09:56:59;17.30;;;3.70;;
5831;SDS011;50943;51.448;7.646;2023-12-22T09:59:26;21.83;;;3.87;;
5831;SDS011;50943;51.448;7.646;2023-12-22T10:01:53;13.33;;;3.37;;
5831;SDS011;50943;51.448;7.646;2023-12-22T10:04:22;11.67;;;3.40;;
5831;SDS011;50943;51.448;7.646;2023-12-22T10:06:49;18.07;;;3.03;;
5831;SDS011;50943;51.448;7.646;2023-12-22T10:09:16;19.90;;;2.97;;
5831;SDS011;50943;51.448;7.646;2023-12-22T10:11:43;21.77;;;3.23;;
5831;SDS011;50943;51.448;7.646;2023-12-22T10:14:10;16.47;;;3.20;;
5831;SDS011;50943;51.448;7.646;2023-12-22T10:16:36;28.23;;;3.67;;
5831;SDS011;50943;51.448;7.646;2023-12-22T10:19:03;18.00;;;2.90;;
5831;SDS011;50943;51.448;7.646;2023-12-22T10:21:31;18.27;;;3.60;;
5831;SDS011;50943;51.448;7.646;2023-12-22T10:23:58;16.40;;;2.80;;
5831;SDS011;50943;51.448;7.646;2023-12-22T10:26:25;12.70;;;2.60;;
5831;SDS011;50943;51.448;7.646;2023-12-22T10:28:51;8.00;;;2.70;;
5831;SDS011;50943;51.448;7.646;2023-12-22T10:31:18;16.50;;;2.83;;
5831;SDS011;50943;51.448;7.646;2023-12-22T10:33:44;14.43;;;3.20;;
5831;SDS011;50943;51.448;7.646;2023-12-22T10:36:10;20.67;;;2.97;;
5831;SDS011;50943;51.448;7.646;2023-12-22T10:38:38;10.90;;;2.60;;
5831;SDS011;50943;51.448;7.646;2023-12-22T10:41:05;7.23;;;2.80;;
5831;SDS011;50943;51.448;7.646;2023-12-22T10:43:36;9.37;;;2.90;;
5831;SDS011;50943;51.448;7.646;2023-12-22T10:46:04;8.40;;;3.10;;
5831;SDS011;50943;51.448;7.646;2023-12-22T10:48:30;18.00;;;3.80;;
5831;SDS011;50943;51.448;7.646;2023-12-22T10:50:57;12.60;;;3.10;;
5831;SDS011;50943;51.448;7.646;2023-12-22T10:53:23;15.50;;;3.70;;
5831;SDS011;50943;51.448;7.646;2023-12-22T10:55:52;25.10;;;5.53;;
5831;SDS011;50943;51.448;7.646;2023-12-22T10:58:19;11.27;;;3.60;;
5831;SDS011;50943;51.448;7.646;2023-12-22T11:00:45;14.60;;;3.50;;
5831;SDS011;50943;51.448;7.646;2023-12-22T11:03:13;10.83;;;4.20;;
5831;SDS011;50943;51.448;7.646;2023-12-22T11:05:44;15.60;;;2.80;;
5831;SDS011;50943;51.448;7.646;2023-12-22T11:08:12;10.17;;;3.23;;
5831;SDS011;50943;51.448;7.646;2023-12-22T11:10:40;14.00;;;3.50;;
5831;SDS011;50943;51.448;7.646;2023-12-22T11:15:37;13.03;;;3.73;;
5831;SDS011;50943;51.448;7.646;2023-12-22T11:18:04;20.57;;;4.23;;
5831;SDS011;50943;51.448;7.646;2023-12-22T11:20:31;18.77;;;3.57;;
5831;SDS011;50943;51.448;7.646;2023-12-22T11:22:58;10.90;;;3.30;;
5831;SDS011;50943;51.448;7.646;2023-12-22T11:25:26;14.93;;;3.90;;
5831;SDS011;50943;51.448;7.646;2023-12-22T11:27:52;15.63;;;3.30;;
5831;SDS011;50943;51.448;7.646;2023-12-22T11:30:21;10.80;;;3.17;;
5831;SDS011;50943;51.448;7.646;2023-12-22T11:32:48;12.93;;;2.93;;
5831;SDS011;50943;51.448;7.646;2023-12-22T11:35:15;9.67;;;2.40;;
5831;SDS011;50943;51.448;7.646;2023-12-22T11:37:43;6.33;;;2.03;;
5831;SDS011;50943;51.448;7.646;2023-12-22T11:40:09;10.33;;;2.13;;
5831;SDS011;50943;51.448;7.646;2023-12-22T11:42:37;8.20;;;2.53;;
5831;SDS011;50943;51.448;7.646;2023-12-22T11:45:09;14.47;;;3.07;;
5831;SDS011;50943;51.448;7.646;2023-12-22T11:47:37;8.30;;;2.00;;
5831;SDS011;50943;51.448;7.646;2023-12-22T11:50:04;7.80;;;2.10;;
5831;SDS011;50943;51.448;7.646;2023-12-22T11:52:35;9.17;;;2.07;;
5831;SDS011;50943;51.448;7.646;2023-12-22T11:55:01;8.10;;;1.80;;
5831;SDS011;50943;51.448;7.646;2023-12-22T11:57:31;13.20;;;2.40;;
5831;SDS011;50943;51.448;7.646;2023-12-22T11:59:58;5.50;;;1.47;;
5831;SDS011;50943;51.448;7.646;2023-12-22T12:02:29;4.73;;;1.10;;
5831;SDS011;50943;51.448;7.646;2023-12-22T12:04:58;4.40;;;1.10;;
5831;SDS011;50943;51.448;7.646;2023-12-22T12:07:36;5.10;;;1.20;;
5831;SDS011;50943;51.448;7.646;2023-12-22T12:10:03;4.17;;;1.30;;
5831;SDS011;50943;51.448;7.646;2023-12-22T12:12:30;8.00;;;2.23;;
5831;SDS011;50943;51.448;7.646;2023-12-22T12:14:59;2.63;;;1.20;;
5831;SDS011;50943;51.448;7.646;2023-12-22T12:17:37;3.73;;;1.00;;
5831;SDS011;50943;51.448;7.646;2023-12-22T12:20:06;4.90;;;1.30;;
5831;SDS011;50943;51.448;7.646;2023-12-22T12:22:34;4.00;;;1.50;;
5831;SDS011;50943;51.448;7.646;2023-12-22T12:25:03;6.83;;;1.20;;
5831;SDS011;50943;51.448;7.646;2023-12-22T12:27:30;3.57;;;1.13;;
5831;SDS011;50943;51.448;7.646;2023-12-22T12:30:00;5.87;;;1.20;;
5831;SDS011;50943;51.448;7.646;2023-12-22T12:32:34;2.10;;;1.10;;
5831;SDS011;50943;51.448;7.646;2023-12-22T12:35:01;5.13;;;1.20;;
5831;SDS011;50943;51.448;7.646;2023-12-22T12:37:29;4.37;;;1.30;;
5831;SDS011;50943;51.448;7.646;2023-12-22T12:39:57;9.13;;;2.00;;
5831;SDS011;50943;51.448;7.646;2023-12-22T12:42:25;6.33;;;1.87;;
5831;SDS011;50943;51.448;7.646;2023-12-22T12:44:54;8.10;;;2.13;;
5831;SDS011;50943;51.448;7.646;2023-12-22T12:47:21;5.40;;;2.23;;
5831;SDS011;50943;51.448;7.646;2023-12-22T12:49:55;2.80;;;1.90;;
5831;SDS011;50943;51.448;7.646;2023-12-22T12:52:22;4.97;;;2.07;;
5831;SDS011;50943;51.448;7.646;2023-12-22T12:54:51;5.63;;;1.60;;
5831;SDS011;50943;51.448;7.646;2023-12-22T12:57:18;6.63;;;1.97;;
5831;SDS011;50943;51.448;7.646;2023-12-22T12:59:45;8.30;;;1.80;;
5831;SDS011;50943;51.448;7.646;2023-12-22T13:02:13;5.87;;;1.60;;
5831;SDS011;50943;51.448;7.646;2023-12-22T13:04:39;5.33;;;1.80;;
5831;SDS011;50943;51.448;7.646;2023-12-22T13:07:06;6.40;;;1.93;;
5831;SDS011;50943;51.448;7.646;2023-12-22T13:09:34;2.87;;;2.40;;
5831;SDS011;50943;51.448;7.646;2023-12-22T13:12:02;3.40;;;1.30;;
5831;SDS011;50943;51.448;7.646;2023-12-22T13:14:29;2.40;;;1.20;;
5831;SDS011;50943;51.448;7.646;2023-12-22T13:16:56;2.80;;;1.33;;
5831;SDS011;50943;51.448;7.646;2023-12-22T13:19:23;2.87;;;1.50;;
5831;SDS011;50943;51.448;7.646;2023-12-22T13:21:50;5.70;;;1.50;;
5831;SDS011;50943;51.448;7.646;2023-12-22T13:24:17;4.10;;;1.77;;
5831;SDS011;50943;51.448;7.646;2023-12-22T13:26:44;5.33;;;3.03;;
5831;SDS011;50943;51.448;7.646;2023-12-22T13:29:12;10.30;;;2.30;;
5831;SDS011;50943;51.448;7.646;2023-12-22T13:31:39;9.30;;;2.10;;
5831;SDS011;50943;51.448;7.646;2023-12-22T13:34:10;5.80;;;2.30;;
5831;SDS011;50943;51.448;7.646;2023-12-22T13:36:37;7.60;;;2.43;;
5831;SDS011;50943;51.448;7.646;2023-12-22T13:39:12;4.17;;;2.90;;
5831;SDS011;50943;51.448;7.646;2023-12-22T13:41:39;3.47;;;2.27;;
5831;SDS011;50943;51.448;7.646;2023-12-22T13:44:07;4.83;;;2.00;;
5831;SDS011;50943;51.448;7.646;2023-12-22T13:46:34;5.63;;;1.70;;
5831;SDS011;50943;51.448;7.646;2023-12-22T13:49:02;3.63;;;1.43;;
5831;SDS011;50943;51.448;7.646;2023-12-22T13:51:38;8.20;;;1.57;;
5831;SDS011;50943;51.448;7.646;2023-12-22T13:54:04;5.80;;;1.60;;
5831;SDS011;50943;51.448;7.646;2023-12-22T13:56:33;8.93;;;1.47;;
5831;SDS011;50943;51.448;7.646;2023-12-22T13:59:01;5.10;;;1.67;;
5831;SDS011;50943;51.448;7.646;2023-12-22T14:01:28;3.30;;;1.83;;
5831;SDS011;50943;51.448;7.646;2023-12-22T14:03:55;12.80;;;1.87;;
5831;SDS011;50943;51.448;7.646;2023-12-22T14:06:22;2.20;;;1.60;;
5831;SDS011;50943;51.448;7.646;2023-12-22T14:08:49;4.40;;;1.30;;
5831;SDS011;50943;51.448;7.646;2023-12-22T14:11:15;5.27;;;1.40;;
5831;SDS011;50943;51.448;7.646;2023-12-22T14:13:43;7.27;;;1.77;;
5831;SDS011;50943;51.448;7.646;2023-12-22T14:16:10;6.13;;;2.00;;
5831;SDS011;50943;51.448;7.646;2023-12-22T14:18:36;2.53;;;1.33;;
5831;SDS011;50943;51.448;7.646;2023-12-22T14:21:04;8.90;;;2.77;;
5831;SDS011;50943;51.448;7.646;2023-12-22T14:23:31;10.83;;;2.20;;
5831;SDS011;50943;51.448;7.646;2023-12-22T14:25:57;5.70;;;2.30;;
5831;SDS011;50943;51.448;7.646;2023-12-22T14:28:24;7.90;;;2.30;;
5831;SDS011;50943;51.448;7.646;2023-12-22T14:30:52;5.47;;;2.20;;
5831;SDS011;50943;51.448;7.646;2023-12-22T14:33:18;9.30;;;2.67;;
5831;SDS011;50943;51.448;7.646;2023-12-22T14:35:45;4.90;;;2.17;;
5831;SDS011;50943;51.448;7.646;2023-12-22T14:38:11;7.97;;;2.27;;
5831;SDS011;50943;51.448;7.646;2023-12-22T14:40:38;14.43;;;2.20;;
5831;SDS011;50943;51.448;7.646;2023-12-22T14:43:04;8.03;;;2.10;;
5831;SDS011;50943;51.448;7.646;2023-12-22T14:45:31;12.37;;;2.47;;
5831;SDS011;50943;51.448;7.646;2023-12-22T14:47:59;3.43;;;1.50;;
5831;SDS011;50943;51.448;7.646;2023-12-22T14:50:25;7.93;;;1.70;;
5831;SDS011;50943;51.448;7.646;2023-12-22T14:52:52;4.60;;;3.10;;
5831;SDS011;50943;51.448;7.646;2023-12-22T14:55:19;7.27;;;1.93;;
5831;SDS011;50943;51.448;7.646;2023-12-22T14:57:46;5.87;;;1.80;;
5831;SDS011;50943;51.448;7.646;2023-12-22T15:00:13;8.70;;;1.77;;